New Cumberland, Pennsylvania
Current Conditions -  °F | °C
As of 4:56 AM on Thursday 27 Nov 2014 (Local Time) from KCXY Reporting Station
Broken Clouds Broken Clouds  
Wind Chill: 30°   Ceiling: 7000
Heat Index: 34°   Visibility: 10mi
Dew Point: 29°   Wind: 5mph
Humidity: 82%   Direction: 260°W
Pressure: 29.99"   Gusts: NA
Location:  40.23°N, 76.87°W
Report Text: KCXY 270956Z AUTO 26004KT 10SM BKN070 01/M02 A2999 RMK AO2 SLP159 T00111017
Loading
Personal Weather Stations






























Interactive Weather Map New forecast layout! Learn more

10-Day Weather Forecast

Advertisements
Track Severe Weather on mobile